Time;durP1;ratioP1;P1;durP2;ratioP2;P2;SDS_P1;SDS_P2;PMS_P1;PMS_P2;Temp;Humidity;BMP_temperature;BMP_pressure;BME280_temperature;BME280_humidity;BME280_pressure;Samples;Min_cycle;Max_cycle;Signal;HPM_P1;HPM_P2
2020/12/08 00:00:12;;;;;;;17.80;12.48;;;;;;;;;;5073928;28;20285;-78
2020/12/08 00:02:53;;;;;;;19.55;12.77;;;;;;;;;;5073974;28;20218;-79
2020/12/08 00:05:21;;;;;;;19.15;11.85;;;;;;;;;;5073358;28;20245;-78
2020/12/08 00:07:48;;;;;;;19.13;12.52;;;;;;;;;;5073877;28;20285;-78
2020/12/08 00:10:18;;;;;;;19.95;13.15;;;;;;;;;;5073840;28;20197;-78
2020/12/08 00:12:46;;;;;;;20.48;12.90;;;;;;;;;;5077807;28;20193;-78
2020/12/08 00:15:13;;;;;;;18.83;12.73;;;;;;;;;;5071194;28;20251;-78
2020/12/08 00:17:40;;;;;;;25.50;13.45;;;;;;;;;;5071308;28;20202;-78
2020/12/08 00:20:08;;;;;;;19.60;13.85;;;;;;;;;;5071122;28;20219;-79
2020/12/08 00:22:35;;;;;;;18.73;12.50;;;;;;;;;;5070716;28;20238;-77
2020/12/08 00:25:02;;;;;;;19.50;13.25;;;;;;;;;;5073423;28;20309;-79
2020/12/08 00:27:29;;;;;;;21.00;12.98;;;;;;;;;;5073663;28;20201;-78
2020/12/08 00:29:56;;;;;;;24.17;14.07;;;;;;;;;;5072417;28;20202;-78
2020/12/08 00:32:23;;;;;;;21.58;12.85;;;;;;;;;;5074719;28;20212;-77
2020/12/08 00:34:50;;;;;;;21.10;13.27;;;;;;;;;;5077125;28;20290;-77
2020/12/08 00:37:17;;;;;;;20.20;13.32;;;;;;;;;;5090049;28;20277;-77
2020/12/08 00:39:44;;;;;;;19.70;13.50;;;;;;;;;;5091117;28;20318;-79
2020/12/08 00:42:11;;;;;;;22.52;13.45;;;;;;;;;;5091737;28;20202;-78
2020/12/08 00:44:38;;;;;;;24.77;13.75;;;;;;;;;;5082884;28;20561;-76
2020/12/08 00:47:05;;;;;;;20.50;13.45;;;;;;;;;;5073472;28;20195;-79
2020/12/08 00:49:32;;;;;;;22.73;13.40;;;;;;;;;;5073761;28;20602;-77
2020/12/08 00:52:00;;;;;;;19.23;13.05;;;;;;;;;;5073203;28;20688;-79
2020/12/08 00:54:26;;;;;;;19.75;13.48;;;;;;;;;;5075100;28;20196;-77
2020/12/08 00:56:53;;;;;;;21.30;13.18;;;;;;;;;;5077190;28;20220;-78
2020/12/08 00:59:20;;;;;;;18.55;13.48;;;;;;;;;;5090214;28;20546;-78
2020/12/08 01:01:47;;;;;;;22.92;14.40;;;;;;;;;;5091257;28;20194;-77
2020/12/08 01:04:15;;;;;;;21.58;12.85;;;;;;;;;;5092222;28;20224;-78
2020/12/08 01:06:42;;;;;;;21.77;12.82;;;;;;;;;;5082384;28;20205;-78
2020/12/08 01:09:09;;;;;;;22.67;14.15;;;;;;;;;;5073414;28;20289;-76
2020/12/08 01:11:41;;;;;;;19.48;13.38;;;;;;;;;;5073372;28;20202;-77
2020/12/08 01:14:07;;;;;;;18.60;13.20;;;;;;;;;;5073576;28;20190;-78
2020/12/08 01:16:35;;;;;;;20.73;13.20;;;;;;;;;;5074649;28;20229;-78
2020/12/08 01:19:02;;;;;;;17.08;10.77;;;;;;;;;;5076324;28;20226;-77
2020/12/08 01:21:29;;;;;;;22.35;13.10;;;;;;;;;;5070410;28;20281;-77
2020/12/08 01:23:56;;;;;;;21.98;13.95;;;;;;;;;;5070757;28;20224;-78
2020/12/08 01:26:23;;;;;;;21.00;12.50;;;;;;;;;;5070702;28;20229;-76
2020/12/08 01:28:50;;;;;;;22.75;14.70;;;;;;;;;;5071338;28;20673;-77
2020/12/08 01:31:17;;;;;;;20.73;13.18;;;;;;;;;;5072832;28;20190;-78
2020/12/08 01:33:44;;;;;;;22.15;13.48;;;;;;;;;;5072903;28;20205;-78
2020/12/08 01:36:11;;;;;;;17.92;12.70;;;;;;;;;;5071751;28;20233;-77
2020/12/08 01:38:38;;;;;;;19.70;12.48;;;;;;;;;;5074516;28;20237;-77
2020/12/08 01:41:05;;;;;;;22.00;13.00;;;;;;;;;;5076652;28;20197;-78
2020/12/08 01:43:32;;;;;;;22.40;13.88;;;;;;;;;;5071218;28;20659;-78
2020/12/08 01:45:58;;;;;;;21.13;14.10;;;;;;;;;;5073859;28;20250;-77
2020/12/08 01:48:26;;;;;;;27.95;14.52;;;;;;;;;;5073889;28;20561;-78
2020/12/08 01:50:53;;;;;;;18.13;12.32;;;;;;;;;;5074693;28;20209;-77
2020/12/08 01:53:20;;;;;;;19.90;13.68;;;;;;;;;;5076381;28;20199;-78
2020/12/08 01:55:48;;;;;;;22.25;13.68;;;;;;;;;;5076139;28;20684;-78
2020/12/08 01:58:20;;;;;;;19.45;14.38;;;;;;;;;;5074977;28;20674;-78
2020/12/08 02:00:47;;;;;;;19.90;12.65;;;;;;;;;;5078107;28;20198;-78
2020/12/08 02:03:14;;;;;;;22.70;13.93;;;;;;;;;;5080213;28;20194;-77
2020/12/08 02:05:41;;;;;;;17.88;12.88;;;;;;;;;;5093464;28;20594;-77
2020/12/08 02:08:07;;;;;;;22.15;14.02;;;;;;;;;;5093907;28;20193;-77
2020/12/08 02:10:34;;;;;;;22.55;15.13;;;;;;;;;;5093984;28;20207;-78
2020/12/08 02:13:02;;;;;;;22.17;15.65;;;;;;;;;;5084013;28;20313;-77
2020/12/08 02:15:30;;;;;;;21.52;12.95;;;;;;;;;;5075567;28;20230;-78
2020/12/08 02:17:56;;;;;;;19.88;14.50;;;;;;;;;;5075928;28;20208;-76
2020/12/08 02:20:24;;;;;;;21.67;14.20;;;;;;;;;;5075613;28;20225;-78
2020/12/08 02:22:53;;;;;;;18.70;13.90;;;;;;;;;;5073410;28;20216;-77
2020/12/08 02:25:19;;;;;;;19.33;13.43;;;;;;;;;;5075231;28;20210;-78
2020/12/08 02:27:46;;;;;;;23.15;15.98;;;;;;;;;;5093061;28;20201;-78
2020/12/08 02:30:13;;;;;;;20.77;12.93;;;;;;;;;;5093377;28;20208;-79
2020/12/08 02:32:40;;;;;;;23.65;15.55;;;;;;;;;;5093518;28;20196;-79
2020/12/08 02:35:07;;;;;;;18.38;13.32;;;;;;;;;;5083219;28;20260;-79
2020/12/08 02:37:35;;;;;;;25.33;15.40;;;;;;;;;;5075544;28;20197;-78
2020/12/08 02:40:02;;;;;;;20.20;13.65;;;;;;;;;;5075433;28;20205;-79
2020/12/08 02:42:29;;;;;;;22.45;15.73;;;;;;;;;;5073967;28;20631;-78
2020/12/08 02:44:56;;;;;;;23.55;16.20;;;;;;;;;;5077231;28;20223;-78
2020/12/08 02:47:22;;;;;;;21.45;14.68;;;;;;;;;;5079728;28;20190;-79
2020/12/08 02:49:49;;;;;;;22.25;14.23;;;;;;;;;;5092662;28;20284;-79
2020/12/08 02:52:16;;;;;;;23.08;14.63;;;;;;;;;;5092881;28;20196;-78
2020/12/08 02:54:44;;;;;;;19.85;14.30;;;;;;;;;;5092657;28;20444;-79
2020/12/08 02:57:10;;;;;;;20.50;14.93;;;;;;;;;;5082498;28;20228;-80
2020/12/08 02:59:37;;;;;;;22.45;15.00;;;;;;;;;;5075067;28;20281;-78
2020/12/08 03:02:04;;;;;;;22.10;15.48;;;;;;;;;;5073811;28;20285;-79
2020/12/08 03:04:31;;;;;;;21.88;15.00;;;;;;;;;;5074823;28;20308;-78
2020/12/08 03:06:58;;;;;;;22.10;15.43;;;;;;;;;;5076689;28;20235;-78
2020/12/08 03:09:25;;;;;;;22.27;15.80;;;;;;;;;;5078729;28;20200;-77
2020/12/08 03:11:52;;;;;;;24.90;16.35;;;;;;;;;;5092152;28;20216;-78
2020/12/08 03:14:19;;;;;;;21.58;14.40;;;;;;;;;;5092753;28;20197;-80
2020/12/08 03:16:46;;;;;;;22.90;15.52;;;;;;;;;;5092534;28;20267;-79
2020/12/08 03:19:12;;;;;;;25.17;16.75;;;;;;;;;;5082206;28;20228;-77
2020/12/08 03:21:40;;;;;;;24.38;16.05;;;;;;;;;;5074607;28;20395;-78
2020/12/08 03:24:07;;;;;;;25.02;16.25;;;;;;;;;;5074328;28;20600;-77
2020/12/08 03:26:33;;;;;;;24.60;17.77;;;;;;;;;;5074516;28;20662;-79
2020/12/08 03:29:01;;;;;;;25.00;17.02;;;;;;;;;;5076334;28;20193;-78
2020/12/08 03:31:28;;;;;;;25.73;16.70;;;;;;;;;;5078642;28;20190;-79
2020/12/08 03:33:55;;;;;;;24.98;17.30;;;;;;;;;;5091791;28;20663;-78
2020/12/08 03:36:22;;;;;;;24.30;16.35;;;;;;;;;;5091889;28;20235;-78
2020/12/08 03:38:49;;;;;;;22.73;16.38;;;;;;;;;;5091947;28;20215;-79
2020/12/08 03:41:20;;;;;;;28.33;17.90;;;;;;;;;;5081980;28;20289;-79
2020/12/08 03:43:46;;;;;;;27.42;17.67;;;;;;;;;;5074174;28;20212;-80
2020/12/08 03:46:18;;;;;;;21.52;15.85;;;;;;;;;;5074165;28;20695;-77
2020/12/08 03:48:45;;;;;;;20.33;15.63;;;;;;;;;;5074079;28;20194;-78
2020/12/08 03:51:13;;;;;;;25.52;19.08;;;;;;;;;;5076172;28;20205;-78
2020/12/08 03:53:40;;;;;;;24.48;17.50;;;;;;;;;;5079057;28;20201;-78
2020/12/08 03:56:09;;;;;;;25.48;17.80;;;;;;;;;;5091142;28;20225;-78
2020/12/08 03:58:36;;;;;;;23.75;16.92;;;;;;;;;;5091775;28;20655;-78
2020/12/08 04:01:03;;;;;;;28.10;18.70;;;;;;;;;;5092068;28;20310;-78
2020/12/08 04:03:31;;;;;;;28.52;18.02;;;;;;;;;;5080067;28;20285;-79
2020/12/08 04:06:00;;;;;;;27.02;17.88;;;;;;;;;;5072993;28;20224;-79
2020/12/08 04:08:27;;;;;;;24.77;16.67;;;;;;;;;;5072747;28;20194;-78
2020/12/08 04:10:54;;;;;;;24.85;16.58;;;;;;;;;;5073810;28;20544;-78
2020/12/08 04:13:21;;;;;;;25.67;17.70;;;;;;;;;;5076097;28;20627;-78
2020/12/08 04:15:48;;;;;;;26.98;17.77;;;;;;;;;;5076690;28;20837;-78
2020/12/08 04:18:15;;;;;;;25.08;17.38;;;;;;;;;;5070759;28;20297;-77
2020/12/08 04:20:44;;;;;;;25.25;17.17;;;;;;;;;;5070986;28;20228;-79
2020/12/08 04:23:11;;;;;;;22.48;15.77;;;;;;;;;;5071664;28;20229;-80
2020/12/08 04:25:38;;;;;;;24.85;16.58;;;;;;;;;;5072356;28;20226;-79
2020/12/08 04:28:05;;;;;;;22.70;16.75;;;;;;;;;;5072561;28;20199;-79
2020/12/08 04:30:33;;;;;;;25.15;16.50;;;;;;;;;;5073547;28;20648;-78
2020/12/08 04:33:00;;;;;;;22.73;16.88;;;;;;;;;;5072368;28;20198;-81
2020/12/08 04:35:26;;;;;;;26.30;18.05;;;;;;;;;;5075879;28;20564;-78
2020/12/08 04:37:54;;;;;;;26.33;16.65;;;;;;;;;;5079300;28;20563;-78
2020/12/08 04:40:21;;;;;;;28.48;18.08;;;;;;;;;;5090784;28;20194;-78
2020/12/08 04:42:48;;;;;;;24.05;16.75;;;;;;;;;;5089987;28;20281;-77
2020/12/08 04:45:16;;;;;;;23.13;16.95;;;;;;;;;;5091306;28;20252;-78
2020/12/08 04:47:44;;;;;;;24.40;17.15;;;;;;;;;;5078624;28;20199;-79
2020/12/08 04:50:11;;;;;;;38.67;18.27;;;;;;;;;;5073562;28;20205;-78
2020/12/08 04:52:38;;;;;;;23.48;16.95;;;;;;;;;;5073336;28;20632;-78
2020/12/08 04:55:06;;;;;;;26.30;16.80;;;;;;;;;;5073084;28;20221;-78
2020/12/08 04:57:33;;;;;;;23.23;16.90;;;;;;;;;;5075804;28;20575;-78
2020/12/08 05:00:01;;;;;;;23.35;16.85;;;;;;;;;;5079350;28;20186;-78
2020/12/08 05:02:28;;;;;;;29.63;17.20;;;;;;;;;;5090519;28;20202;-78
2020/12/08 05:04:55;;;;;;;24.33;16.35;;;;;;;;;;5091101;28;20228;-79
2020/12/08 05:07:26;;;;;;;24.80;16.40;;;;;;;;;;5091350;28;20285;-78
2020/12/08 05:09:53;;;;;;;26.05;16.58;;;;;;;;;;5076599;28;20232;-80
2020/12/08 05:12:21;;;;;;;24.85;16.55;;;;;;;;;;5071982;28;20282;-80
2020/12/08 05:14:47;;;;;;;23.10;16.77;;;;;;;;;;5073222;28;20297;-77
2020/12/08 05:17:20;;;;;;;25.08;16.80;;;;;;;;;;5073755;28;20252;-78
2020/12/08 05:19:47;;;;;;;25.05;16.00;;;;;;;;;;5079020;28;20226;-79
2020/12/08 05:22:14;;;;;;;22.38;16.13;;;;;;;;;;5079350;28;20273;-77
2020/12/08 05:24:41;;;;;;;21.38;15.55;;;;;;;;;;5074488;28;20209;-77
2020/12/08 05:27:08;;;;;;;21.42;15.00;;;;;;;;;;5074646;28;20199;-78
2020/12/08 05:29:36;;;;;;;24.95;15.70;;;;;;;;;;5075048;28;20194;-78
2020/12/08 05:32:22;;;;;;;20.13;14.10;;;;;;;;;;5075598;28;20205;-77
2020/12/08 05:34:52;;;;;;;22.67;16.10;;;;;;;;;;5076657;28;20219;-78
2020/12/08 05:37:20;;;;;;;18.40;13.63;;;;;;;;;;5075343;28;20232;-79
2020/12/08 05:39:47;;;;;;;19.33;13.85;;;;;;;;;;5075391;28;20198;-80
2020/12/08 05:42:17;;;;;;;20.92;14.18;;;;;;;;;;5079989;28;20201;-79
2020/12/08 05:44:47;;;;;;;15.68;12.15;;;;;;;;;;5077263;28;20721;-79
2020/12/08 05:47:17;;;;;;;22.55;12.88;;;;;;;;;;5074266;28;20496;-79
2020/12/08 05:49:44;;;;;;;16.48;13.27;;;;;;;;;;5072704;28;20572;-78
2020/12/08 05:52:11;;;;;;;17.08;12.10;;;;;;;;;;5074009;28;20660;-78
2020/12/08 05:54:38;;;;;;;19.65;12.68;;;;;;;;;;5075567;28;20314;-77
2020/12/08 05:57:19;;;;;;;15.30;11.75;;;;;;;;;;5076249;28;20245;-76
2020/12/08 05:59:54;;;;;;;13.93;10.88;;;;;;;;;;5075237;28;20194;-78
2020/12/08 06:02:27;;;;;;;13.82;10.73;;;;;;;;;;5076158;28;20198;-78
2020/12/08 06:04:54;;;;;;;13.55;10.30;;;;;;;;;;5078796;28;20217;-78
2020/12/08 06:07:27;;;;;;;13.50;10.63;;;;;;;;;;5075690;28;20281;-78
2020/12/08 06:10:03;;;;;;;15.43;11.23;;;;;;;;;;5074684;28;20549;-77
2020/12/08 06:12:30;;;;;;;11.38;9.38;;;;;;;;;;5073774;28;20629;-77
2020/12/08 06:14:57;;;;;;;13.30;9.73;;;;;;;;;;5073665;28;20304;-76
2020/12/08 06:17:24;;;;;;;10.07;7.82;;;;;;;;;;5075921;28;20232;-77
2020/12/08 06:19:51;;;;;;;11.88;9.25;;;;;;;;;;5075612;28;20233;-77
2020/12/08 06:22:18;;;;;;;12.27;10.20;;;;;;;;;;5075866;28;20549;-78
2020/12/08 06:24:52;;;;;;;12.38;8.95;;;;;;;;;;5076505;28;20875;-77
2020/12/08 06:27:20;;;;;;;12.18;8.27;;;;;;;;;;5079483;28;20193;-76
2020/12/08 06:29:50;;;;;;;13.20;9.27;;;;;;;;;;5089561;28;20767;-78
2020/12/08 06:32:24;;;;;;;11.85;8.30;;;;;;;;;;5093257;28;20192;-78
2020/12/08 06:34:50;;;;;;;11.52;9.52;;;;;;;;;;5093100;28;20228;-77
2020/12/08 06:37:17;;;;;;;12.57;8.98;;;;;;;;;;5085759;28;20306;-77
2020/12/08 06:39:44;;;;;;;11.32;8.40;;;;;;;;;;5078613;28;20186;-77
2020/12/08 06:42:12;;;;;;;14.30;9.68;;;;;;;;;;5083702;28;20200;-78
2020/12/08 06:44:39;;;;;;;12.77;9.23;;;;;;;;;;5094411;28;20686;-78
2020/12/08 06:47:06;;;;;;;12.00;8.82;;;;;;;;;;5093180;28;20710;-77
2020/12/08 06:49:38;;;;;;;10.80;8.70;;;;;;;;;;5087376;28;20193;-77
2020/12/08 06:52:05;;;;;;;11.70;8.85;;;;;;;;;;5071986;28;20199;-77
2020/12/08 06:54:32;;;;;;;11.90;9.52;;;;;;;;;;5066585;28;20580;-80
2020/12/08 06:57:00;;;;;;;11.38;8.52;;;;;;;;;;5073841;28;20808;-79
2020/12/08 06:59:28;;;;;;;9.80;7.10;;;;;;;;;;5066771;28;20194;-79
2020/12/08 07:01:55;;;;;;;10.35;8.05;;;;;;;;;;5077632;28;20699;-77
2020/12/08 07:04:22;;;;;;;10.25;7.35;;;;;;;;;;5083576;28;20284;-78
2020/12/08 07:06:50;;;;;;;10.63;7.68;;;;;;;;;;5092940;28;20632;-77
2020/12/08 07:09:17;;;;;;;8.55;6.72;;;;;;;;;;5092494;28;20193;-79
2020/12/08 07:11:44;;;;;;;11.82;7.55;;;;;;;;;;5093175;28;20194;-80
2020/12/08 07:14:11;;;;;;;13.63;9.50;;;;;;;;;;5073854;28;20285;-79
2020/12/08 07:16:38;;;;;;;10.38;7.82;;;;;;;;;;5074586;28;20225;-78
2020/12/08 07:19:05;;;;;;;11.10;8.40;;;;;;;;;;5073162;28;20312;-77
2020/12/08 07:21:32;;;;;;;12.35;9.15;;;;;;;;;;5074426;28;20293;-78
2020/12/08 07:24:00;;;;;;;10.48;8.18;;;;;;;;;;5077983;28;20197;-78
2020/12/08 07:26:27;;;;;;;9.63;7.32;;;;;;;;;;5075318;28;20214;-77
2020/12/08 07:28:55;;;;;;;12.93;7.88;;;;;;;;;;5072186;28;20289;-76
2020/12/08 07:31:22;;;;;;;9.00;7.45;;;;;;;;;;5070696;28;20205;-82
2020/12/08 07:33:49;;;;;;;12.30;8.90;;;;;;;;;;5070058;28;20270;-83
2020/12/08 07:36:24;;;;;;;10.43;8.25;;;;;;;;;;5074538;28;20233;-76
2020/12/08 07:38:52;;;;;;;10.73;9.05;;;;;;;;;;5081793;28;20666;-76
2020/12/08 07:41:20;;;;;;;9.95;8.50;;;;;;;;;;5077723;28;20194;-76
2020/12/08 07:43:47;;;;;;;11.73;8.40;;;;;;;;;;5070451;28;20279;-78
2020/12/08 07:46:16;;;;;;;12.90;9.45;;;;;;;;;;5071528;28;20621;-77
2020/12/08 07:48:42;;;;;;;12.13;9.60;;;;;;;;;;5074534;28;20201;-76
2020/12/08 07:51:09;;;;;;;10.55;8.45;;;;;;;;;;5078177;28;20194;-76
2020/12/08 07:53:36;;;;;;;15.40;11.05;;;;;;;;;;5076615;28;20541;-77
2020/12/08 07:56:04;;;;;;;15.20;10.65;;;;;;;;;;5070141;28;20233;-77
2020/12/08 07:58:31;;;;;;;13.52;9.15;;;;;;;;;;5070454;28;20417;-76
2020/12/08 08:00:58;;;;;;;13.75;8.93;;;;;;;;;;5072044;28;20617;-77
2020/12/08 08:03:25;;;;;;;14.93;10.65;;;;;;;;;;5073394;28;20206;-76
2020/12/08 08:05:52;;;;;;;15.80;10.65;;;;;;;;;;5073779;28;20312;-78
2020/12/08 08:08:23;;;;;;;14.00;9.80;;;;;;;;;;5073761;28;20201;-77
2020/12/08 08:10:50;;;;;;;16.05;11.55;;;;;;;;;;5074131;28;20190;-77
2020/12/08 08:13:28;;;;;;;16.35;11.90;;;;;;;;;;5077061;28;20721;-77
2020/12/08 08:15:55;;;;;;;15.63;11.43;;;;;;;;;;5070857;28;20456;-77
2020/12/08 08:18:22;;;;;;;15.43;11.20;;;;;;;;;;5071333;28;20287;-78
2020/12/08 08:20:49;;;;;;;15.13;11.35;;;;;;;;;;5071129;28;20320;-77
2020/12/08 08:23:16;;;;;;;18.02;11.95;;;;;;;;;;5072121;28;20202;-78
2020/12/08 08:25:43;;;;;;;15.50;11.35;;;;;;;;;;5073187;28;20210;-76
2020/12/08 08:28:10;;;;;;;17.63;12.73;;;;;;;;;;5073350;28;20194;-77
2020/12/08 08:30:36;;;;;;;15.70;11.45;;;;;;;;;;5073432;28;20205;-79
2020/12/08 08:33:04;;;;;;;16.17;11.68;;;;;;;;;;5074681;28;20236;-78
2020/12/08 08:35:31;;;;;;;18.50;12.10;;;;;;;;;;5077296;28;20264;-78
2020/12/08 08:37:59;;;;;;;17.75;11.70;;;;;;;;;;5071184;28;20308;-78
2020/12/08 08:40:25;;;;;;;15.82;11.00;;;;;;;;;;5070993;28;20228;-78
2020/12/08 08:42:55;;;;;;;20.73;11.27;;;;;;;;;;5070704;28;20656;-78
2020/12/08 08:45:21;;;;;;;18.55;11.48;;;;;;;;;;5071784;28;20236;-79
2020/12/08 08:47:49;;;;;;;17.98;10.85;;;;;;;;;;5073522;28;20644;-78
2020/12/08 08:50:17;;;;;;;15.07;11.55;;;;;;;;;;5073468;28;20198;-78
2020/12/08 08:52:44;;;;;;;14.55;11.05;;;;;;;;;;5074883;28;20557;-78
2020/12/08 08:55:11;;;;;;;15.57;11.57;;;;;;;;;;5078293;28;20209;-77
2020/12/08 08:57:38;;;;;;;15.35;11.27;;;;;;;;;;5080707;28;21745;-77
2020/12/08 09:00:06;;;;;;;14.98;10.68;;;;;;;;;;5092704;28;20285;-78
2020/12/08 09:02:33;;;;;;;15.68;11.55;;;;;;;;;;5095127;28;20204;-79
2020/12/08 09:05:00;;;;;;;13.45;10.30;;;;;;;;;;5095166;28;20279;-78
2020/12/08 09:07:29;;;;;;;13.13;10.25;;;;;;;;;;5088217;28;20206;-78
2020/12/08 09:09:56;;;;;;;17.67;10.38;;;;;;;;;;5076933;28;20659;-78
2020/12/08 09:12:23;;;;;;;15.43;10.07;;;;;;;;;;5075662;28;20190;-79
2020/12/08 09:14:54;;;;;;;13.30;10.63;;;;;;;;;;5076134;28;20206;-78
2020/12/08 09:17:21;;;;;;;13.50;10.35;;;;;;;;;;5077661;28;20305;-78
2020/12/08 09:19:48;;;;;;;13.65;10.00;;;;;;;;;;5080210;28;20299;-77
2020/12/08 09:22:15;;;;;;;13.10;10.35;;;;;;;;;;5091304;28;20605;-78
2020/12/08 09:24:42;;;;;;;14.65;11.15;;;;;;;;;;5094550;28;20252;-78
2020/12/08 09:27:14;;;;;;;17.90;10.65;;;;;;;;;;5094922;28;20254;-79
2020/12/08 09:29:41;;;;;;;15.55;10.38;;;;;;;;;;5088623;28;20199;-78
2020/12/08 09:32:08;;;;;;;14.27;10.20;;;;;;;;;;5076667;28;20198;-78
2020/12/08 09:34:35;;;;;;;13.07;9.85;;;;;;;;;;5076140;28;20209;-79
2020/12/08 09:37:02;;;;;;;16.70;12.23;;;;;;;;;;5076338;28;20313;-79
2020/12/08 09:39:29;;;;;;;14.35;11.05;;;;;;;;;;5076897;28;20198;-78
2020/12/08 09:41:57;;;;;;;15.20;11.10;;;;;;;;;;5080097;28;20534;-79
2020/12/08 09:44:25;;;;;;;13.65;10.40;;;;;;;;;;5089453;28;20190;-79
2020/12/08 09:46:52;;;;;;;14.07;10.45;;;;;;;;;;5094827;28;20193;-78
2020/12/08 09:49:19;;;;;;;15.10;10.70;;;;;;;;;;5073588;28;20194;-78
2020/12/08 09:51:46;;;;;;;13.32;11.07;;;;;;;;;;5073965;28;20202;-78
2020/12/08 09:54:13;;;;;;;14.07;10.63;;;;;;;;;;5076315;28;20198;-78
2020/12/08 09:56:40;;;;;;;13.07;11.02;;;;;;;;;;5076218;28;20768;-78
2020/12/08 09:59:08;;;;;;;13.80;10.88;;;;;;;;;;5075637;28;20285;-78
2020/12/08 10:01:35;;;;;;;15.27;11.13;;;;;;;;;;5076163;28;20293;-78
2020/12/08 10:04:03;;;;;;;16.80;11.98;;;;;;;;;;5078588;28;20198;-78
2020/12/08 10:06:30;;;;;;;16.15;11.52;;;;;;;;;;5075727;28;20563;-77
2020/12/08 10:08:57;;;;;;;14.13;11.73;;;;;;;;;;5073922;28;20194;-78
2020/12/08 10:11:25;;;;;;;14.38;10.38;;;;;;;;;;5073724;28;20236;-79
2020/12/08 10:13:52;;;;;;;14.70;10.15;;;;;;;;;;5073558;28;20460;-78
2020/12/08 10:16:20;;;;;;;13.68;10.30;;;;;;;;;;5075602;28;20675;-79
2020/12/08 10:18:48;;;;;;;13.27;10.02;;;;;;;;;;5075463;28;20281;-78
2020/12/08 10:21:15;;;;;;;13.73;10.63;;;;;;;;;;5075968;28;20248;-77
2020/12/08 10:23:42;;;;;;;15.05;10.35;;;;;;;;;;5075329;28;20711;-78
2020/12/08 10:26:10;;;;;;;13.18;10.07;;;;;;;;;;5079312;28;21655;-77
2020/12/08 10:28:37;;;;;;;14.18;9.68;;;;;;;;;;5086035;28;20189;-78
2020/12/08 10:31:04;;;;;;;14.05;10.43;;;;;;;;;;5093527;28;20594;-77
2020/12/08 10:33:32;;;;;;;12.63;9.95;;;;;;;;;;5092172;28;20196;-78
2020/12/08 10:36:00;;;;;;;13.85;10.25;;;;;;;;;;5092976;28;20210;-77
2020/12/08 10:38:27;;;;;;;13.07;9.85;;;;;;;;;;5075519;28;20197;-77
2020/12/08 10:40:54;;;;;;;14.57;10.50;;;;;;;;;;5074230;28;20194;-77
2020/12/08 10:43:21;;;;;;;15.10;11.18;;;;;;;;;;5075320;28;20204;-78
2020/12/08 10:45:48;;;;;;;15.50;10.20;;;;;;;;;;5074963;28;20647;-78
2020/12/08 10:48:16;;;;;;;14.57;10.43;;;;;;;;;;5078685;28;20260;-76
2020/12/08 10:50:45;;;;;;;15.50;10.40;;;;;;;;;;5084217;28;20201;-77
2020/12/08 10:53:12;;;;;;;15.10;10.43;;;;;;;;;;5085661;28;20572;-79
2020/12/08 10:55:39;;;;;;;13.57;10.10;;;;;;;;;;5072607;28;20260;-77
2020/12/08 10:58:06;;;;;;;13.70;10.85;;;;;;;;;;5072882;28;20227;-78
2020/12/08 11:00:33;;;;;;;14.13;10.82;;;;;;;;;;5074164;28;20202;-78
2020/12/08 11:03:01;;;;;;;13.63;9.70;;;;;;;;;;5073931;28;20190;-76
2020/12/08 11:05:28;;;;;;;22.13;11.25;;;;;;;;;;5074846;28;20312;-77
2020/12/08 11:07:56;;;;;;;14.88;11.48;;;;;;;;;;5073750;28;20198;-78
2020/12/08 11:10:23;;;;;;;13.30;10.60;;;;;;;;;;5077285;28;20729;-78
2020/12/08 11:12:50;;;;;;;14.15;9.98;;;;;;;;;;5075801;28;20228;-78
2020/12/08 11:15:17;;;;;;;15.00;10.48;;;;;;;;;;5072076;28;20214;-78
2020/12/08 11:17:45;;;;;;;12.93;9.35;;;;;;;;;;5071784;28;20614;-76
2020/12/08 11:20:12;;;;;;;14.52;10.27;;;;;;;;;;5068216;28;20536;-78
2020/12/08 11:22:40;;;;;;;9.82;8.80;;;;;;;;;;5069456;28;20198;-78
2020/12/08 11:25:08;;;;;;;12.18;9.00;;;;;;;;;;5073955;28;20408;-78
2020/12/08 11:27:35;;;;;;;12.88;9.68;;;;;;;;;;5082979;28;20228;-79
2020/12/08 11:30:02;;;;;;;14.75;9.18;;;;;;;;;;5089037;28;20280;-79
2020/12/08 11:32:29;;;;;;;12.98;10.52;;;;;;;;;;5089078;28;20570;-78
2020/12/08 11:34:56;;;;;;;12.63;8.90;;;;;;;;;;5085966;28;20316;-79
2020/12/08 11:37:23;;;;;;;12.88;10.50;;;;;;;;;;5070280;28;20765;-77
2020/12/08 11:39:50;;;;;;;13.65;9.32;;;;;;;;;;5070236;28;20204;-83
2020/12/08 11:42:18;;;;;;;11.18;9.30;;;;;;;;;;5068769;28;20220;-81
2020/12/08 11:44:46;;;;;;;15.18;10.52;;;;;;;;;;5070674;28;20260;-78
2020/12/08 11:47:13;;;;;;;12.70;9.00;;;;;;;;;;5074306;28;20190;-82
2020/12/08 11:49:40;;;;;;;10.25;8.50;;;;;;;;;;5070116;28;20194;-79
2020/12/08 11:52:09;;;;;;;10.93;8.60;;;;;;;;;;5068457;28;20652;-79
2020/12/08 11:54:37;;;;;;;10.45;9.05;;;;;;;;;;5067823;28;20214;-80
2020/12/08 11:57:04;;;;;;;11.60;8.25;;;;;;;;;;5068129;28;20218;-77
2020/12/08 11:59:32;;;;;;;9.38;7.82;;;;;;;;;;5070432;28;20285;-79
2020/12/08 12:01:59;;;;;;;11.02;8.00;;;;;;;;;;5070240;28;20413;-78
2020/12/08 12:04:26;;;;;;;10.05;8.35;;;;;;;;;;5070233;28;20200;-82
2020/12/08 12:06:52;;;;;;;10.52;7.70;;;;;;;;;;5070228;28;20202;-76
2020/12/08 12:09:19;;;;;;;7.55;6.75;;;;;;;;;;5075204;28;20198;-76
2020/12/08 12:11:46;;;;;;;14.85;8.95;;;;;;;;;;5081580;28;20609;-76
2020/12/08 12:14:13;;;;;;;9.15;7.13;;;;;;;;;;5088552;28;20189;-76
2020/12/08 12:16:41;;;;;;;9.90;7.32;;;;;;;;;;5088332;28;20220;-76
2020/12/08 12:19:08;;;;;;;9.20;7.88;;;;;;;;;;5085459;28;20816;-77
2020/12/08 12:21:34;;;;;;;9.20;7.75;;;;;;;;;;5071491;28;20199;-77
2020/12/08 12:24:01;;;;;;;9.30;7.93;;;;;;;;;;5073659;28;20285;-77
2020/12/08 12:26:28;;;;;;;9.10;7.70;;;;;;;;;;5073350;28;20260;-78
2020/12/08 12:28:55;;;;;;;10.65;7.80;;;;;;;;;;5073549;28;20206;-78
2020/12/08 12:31:22;;;;;;;9.38;8.25;;;;;;;;;;5077121;28;20201;-77
2020/12/08 12:33:50;;;;;;;9.68;7.90;;;;;;;;;;5073011;28;20222;-77
2020/12/08 12:36:17;;;;;;;9.70;8.63;;;;;;;;;;5071173;28;20305;-78
2020/12/08 12:38:44;;;;;;;8.27;7.35;;;;;;;;;;5071272;28;20194;-79
2020/12/08 12:41:10;;;;;;;8.68;7.75;;;;;;;;;;5071202;28;20206;-81
2020/12/08 12:43:38;;;;;;;11.15;8.63;;;;;;;;;;5073589;28;20193;-81
2020/12/08 12:46:05;;;;;;;9.50;8.05;;;;;;;;;;5073425;28;20276;-77
2020/12/08 12:48:32;;;;;;;9.27;7.80;;;;;;;;;;5073286;28;20284;-78
2020/12/08 12:50:59;;;;;;;11.25;7.75;;;;;;;;;;5073449;28;20285;-79
2020/12/08 12:53:26;;;;;;;13.25;8.75;;;;;;;;;;5077405;28;20220;-79
2020/12/08 12:55:53;;;;;;;9.43;8.40;;;;;;;;;;5085280;28;20299;-78
2020/12/08 12:58:20;;;;;;;8.88;7.35;;;;;;;;;;5091124;28;20225;-79
2020/12/08 13:00:46;;;;;;;11.40;8.50;;;;;;;;;;5090962;28;20284;-78
2020/12/08 13:03:13;;;;;;;10.00;8.18;;;;;;;;;;5088253;28;20251;-78
2020/12/08 13:05:40;;;;;;;9.57;7.53;;;;;;;;;;5073042;28;20242;-79
2020/12/08 13:08:08;;;;;;;9.20;8.25;;;;;;;;;;5073334;28;20228;-78
2020/12/08 13:10:35;;;;;;;11.00;8.27;;;;;;;;;;5073159;28;20199;-77
2020/12/08 13:13:01;;;;;;;11.25;8.40;;;;;;;;;;5073418;28;20285;-77
2020/12/08 13:15:28;;;;;;;9.60;7.70;;;;;;;;;;5076638;28;20214;-78
2020/12/08 13:17:55;;;;;;;10.00;7.82;;;;;;;;;;5072379;28;20618;-79
2020/12/08 13:20:22;;;;;;;8.85;7.25;;;;;;;;;;5070676;28;20232;-79
2020/12/08 13:22:49;;;;;;;10.82;7.70;;;;;;;;;;5070769;28;20222;-77
2020/12/08 13:25:16;;;;;;;9.77;8.27;;;;;;;;;;5070720;28;20341;-79
2020/12/08 13:27:43;;;;;;;10.32;8.25;;;;;;;;;;5073149;28;20226;-77
2020/12/08 13:30:10;;;;;;;8.82;7.97;;;;;;;;;;5072969;28;20198;-78
2020/12/08 13:32:37;;;;;;;8.32;7.47;;;;;;;;;;5072812;28;20244;-78
2020/12/08 13:35:04;;;;;;;8.80;7.70;;;;;;;;;;5073122;28;20613;-78
2020/12/08 13:37:31;;;;;;;8.82;7.80;;;;;;;;;;5076415;28;20218;-78
2020/12/08 13:40:01;;;;;;;10.40;8.25;;;;;;;;;;5075818;28;20186;-77
2020/12/08 13:42:29;;;;;;;11.00;8.68;;;;;;;;;;5074208;28;20203;-79
2020/12/08 13:44:55;;;;;;;11.30;8.20;;;;;;;;;;5073965;28;20263;-77
2020/12/08 13:47:22;;;;;;;11.27;7.85;;;;;;;;;;5074402;28;20206;-79
2020/12/08 13:49:49;;;;;;;9.90;7.72;;;;;;;;;;5076459;28;20281;-77
2020/12/08 13:52:16;;;;;;;9.48;7.82;;;;;;;;;;5076382;28;20285;-78
2020/12/08 13:54:42;;;;;;;9.50;7.72;;;;;;;;;;5076245;28;20260;-78
2020/12/08 13:57:09;;;;;;;8.45;6.63;;;;;;;;;;5076415;28;20224;-79
2020/12/08 13:59:37;;;;;;;11.50;7.80;;;;;;;;;;5079903;28;20280;-79
2020/12/08 14:02:04;;;;;;;8.38;7.38;;;;;;;;;;5088739;28;20196;-79
2020/12/08 14:04:31;;;;;;;10.90;8.30;;;;;;;;;;5094174;28;20266;-79
2020/12/08 14:06:57;;;;;;;11.15;8.75;;;;;;;;;;5093989;28;20857;-79
2020/12/08 14:09:24;;;;;;;9.50;8.45;;;;;;;;;;5090917;28;20194;-78
2020/12/08 14:11:51;;;;;;;9.32;8.35;;;;;;;;;;5076518;28;20209;-77
2020/12/08 14:14:18;;;;;;;11.70;8.38;;;;;;;;;;5075867;28;20201;-78
2020/12/08 14:16:46;;;;;;;11.15;8.07;;;;;;;;;;5075940;28;20305;-78
2020/12/08 14:19:12;;;;;;;11.32;8.00;;;;;;;;;;5075941;28;20313;-78
2020/12/08 14:21:39;;;;;;;10.18;7.50;;;;;;;;;;5079810;28;20292;-80
2020/12/08 14:24:12;;;;;;;8.50;7.60;;;;;;;;;;5088068;28;20289;-78